createdAt,value
2016-12-23T00:00:40.516Z,17.06
2016-12-23T00:01:21.061Z,17.04
2016-12-23T00:02:01.578Z,17.05
2016-12-23T00:02:42.103Z,17.09
2016-12-23T00:03:22.632Z,17.05
2016-12-23T00:04:03.166Z,17.04
2016-12-23T00:04:43.689Z,17.04
2016-12-23T00:05:24.220Z,17.04
2016-12-23T00:06:04.752Z,17.06
2016-12-23T00:06:45.293Z,17.09
2016-12-23T00:07:25.828Z,17.05
2016-12-23T00:08:06.357Z,17.09
2016-12-23T00:08:46.883Z,17.04
2016-12-23T00:09:27.424Z,17.09
2016-12-23T00:10:07.952Z,17.09
2016-12-23T00:10:48.484Z,17.05
2016-12-23T00:11:29.019Z,17.09
2016-12-23T00:12:09.549Z,17.11
2016-12-23T00:12:50.076Z,17.08
2016-12-23T00:13:30.603Z,17.14
2016-12-23T00:14:11.143Z,17.12
2016-12-23T00:14:51.670Z,17.09
2016-12-23T00:15:32.202Z,17.09
2016-12-23T00:16:12.731Z,17.06
2016-12-23T00:16:53.305Z,17.11
2016-12-23T00:17:33.795Z,17.02
2016-12-23T00:18:14.324Z,17.09
2016-12-23T00:18:54.859Z,17.08
2016-12-23T00:19:35.397Z,17.15
2016-12-23T00:20:15.930Z,17.14
2016-12-23T00:20:56.462Z,17.11
2016-12-23T00:21:36.999Z,17.11
2016-12-23T00:22:17.537Z,17.09
2016-12-23T00:22:58.067Z,17.06
2016-12-23T00:23:38.603Z,17.06
2016-12-23T00:24:19.136Z,17.05
2016-12-23T00:24:59.664Z,17.15
2016-12-23T00:25:40.194Z,17.09
2016-12-23T00:26:20.723Z,17.09
2016-12-23T00:27:01.248Z,17.16
2016-12-23T00:27:41.767Z,17.16
2016-12-23T00:28:22.296Z,17.12
2016-12-23T00:29:02.821Z,17.08
2016-12-23T00:29:43.347Z,17.11
2016-12-23T00:30:23.881Z,17.09
2016-12-23T00:31:04.410Z,17.16
2016-12-23T00:31:44.942Z,17.14
2016-12-23T00:32:25.491Z,17.12
2016-12-23T00:33:06.028Z,17.14
2016-12-23T00:33:46.553Z,17.19
2016-12-23T00:34:27.083Z,17.11
2016-12-23T00:35:07.609Z,17.11
2016-12-23T00:35:48.138Z,17.14
2016-12-23T00:36:28.665Z,17.09
2016-12-23T00:37:09.207Z,17.14
2016-12-23T00:37:49.749Z,17.09
2016-12-23T00:38:30.284Z,17.12
2016-12-23T00:39:10.818Z,17.16
2016-12-23T00:39:51.347Z,17.14
2016-12-23T00:40:31.882Z,17.12
2016-12-23T00:41:12.415Z,17.11
2016-12-23T00:41:52.939Z,17.15
2016-12-23T00:42:33.486Z,17.14
2016-12-23T00:43:14.028Z,17.16
2016-12-23T00:43:54.564Z,17.16
2016-12-23T00:44:35.085Z,17.11
2016-12-23T00:45:15.620Z,17.14
2016-12-23T00:45:56.149Z,17.11
2016-12-23T00:46:36.684Z,17.14
2016-12-23T00:47:17.211Z,17.11
2016-12-23T00:47:57.747Z,17.15
2016-12-23T00:48:38.276Z,17.12
2016-12-23T00:49:18.818Z,17.12
2016-12-23T00:49:59.350Z,17.09
2016-12-23T00:50:39.880Z,17.16
2016-12-23T00:51:20.415Z,17.12
2016-12-23T00:52:00.939Z,17.09
2016-12-23T00:52:41.470Z,17.14
2016-12-23T00:53:21.999Z,17.19
2016-12-23T00:54:02.532Z,17.11
2016-12-23T00:54:43.062Z,17.11
2016-12-23T00:55:23.602Z,17.11
2016-12-23T00:56:04.131Z,17.15
2016-12-23T00:56:44.668Z,17.12
2016-12-23T00:57:25.203Z,17.19
2016-12-23T00:58:05.732Z,17.14
2016-12-23T00:58:46.270Z,17.11
2016-12-23T00:59:26.810Z,17.11
2016-12-23T01:00:07.346Z,17.09
2016-12-23T01:00:47.877Z,17.09
2016-12-23T01:01:28.420Z,17.12
2016-12-23T01:02:08.958Z,17.11
2016-12-23T01:02:49.488Z,17.09
2016-12-23T01:03:30.017Z,17.15
2016-12-23T01:04:10.562Z,17.05
2016-12-23T01:04:51.093Z,17.09
2016-12-23T01:05:31.630Z,17.09
2016-12-23T01:06:12.167Z,17.09
2016-12-23T01:06:52.692Z,17.16
2016-12-23T01:07:33.239Z,17.14
2016-12-23T01:08:13.772Z,17.14
2016-12-23T01:08:54.301Z,17.12
2016-12-23T01:09:34.846Z,17.09
2016-12-23T01:10:15.385Z,17.16
2016-12-23T01:10:55.910Z,17.14
2016-12-23T01:11:36.449Z,17.12
2016-12-23T01:12:16.969Z,17.12
2016-12-23T01:12:57.507Z,17.08
2016-12-23T01:13:38.044Z,17.12
2016-12-23T01:14:18.581Z,17.12
2016-12-23T01:14:59.112Z,17.14
2016-12-23T01:15:39.648Z,17.11
2016-12-23T01:16:20.172Z,17.19
2016-12-23T01:17:00.687Z,17.15
2016-12-23T01:17:41.223Z,17.11
2016-12-23T01:18:21.748Z,17.08
2016-12-23T01:19:02.283Z,17.2
2016-12-23T01:19:42.817Z,17.11
2016-12-23T01:20:23.345Z,17.15
2016-12-23T01:21:03.874Z,17.06
2016-12-23T01:21:44.404Z,17.09
2016-12-23T01:22:24.951Z,17.14
2016-12-23T01:23:05.485Z,17.15
2016-12-23T01:23:46.020Z,17.06
2016-12-23T01:24:26.546Z,17.12
2016-12-23T01:25:07.083Z,17.14
2016-12-23T01:25:47.599Z,17.19
2016-12-23T01:26:28.140Z,17.09
2016-12-23T01:27:08.676Z,17.12
2016-12-23T01:27:49.204Z,17.16
2016-12-23T01:28:29.730Z,17.14
2016-12-23T01:29:10.259Z,17.09
2016-12-23T01:29:50.797Z,17.14
2016-12-23T01:30:31.318Z,17.11
2016-12-23T01:31:11.852Z,17.09
2016-12-23T01:31:52.381Z,17.04
2016-12-23T01:32:32.916Z,17.11
2016-12-23T01:33:13.449Z,17.08
2016-12-23T01:33:53.989Z,17.11
2016-12-23T01:34:34.514Z,17.12
2016-12-23T01:35:15.048Z,17.14
2016-12-23T01:35:55.586Z,17.11
2016-12-23T01:36:36.123Z,17.12
2016-12-23T01:37:16.655Z,17.08
2016-12-23T01:37:57.190Z,17.11
2016-12-23T01:38:37.725Z,17.11
2016-12-23T01:39:18.264Z,17.06
2016-12-23T01:39:58.797Z,17.05
2016-12-23T01:40:39.325Z,17.05
2016-12-23T01:41:19.853Z,17.02
2016-12-23T01:42:00.388Z,17.06
2016-12-23T01:42:40.928Z,17.12
2016-12-23T01:43:21.463Z,17.12
2016-12-23T01:44:01.994Z,17.11
2016-12-23T01:44:42.512Z,17.09
2016-12-23T01:45:23.048Z,17.09
2016-12-23T01:46:03.577Z,17.06
2016-12-23T01:46:44.117Z,17.09
2016-12-23T01:47:24.645Z,17.11
2016-12-23T01:48:05.165Z,17.02
2016-12-23T01:48:45.705Z,17.09
2016-12-23T01:49:26.241Z,17.12
2016-12-23T01:50:06.766Z,17.15
2016-12-23T01:50:47.323Z,17.14
2016-12-23T01:51:27.857Z,17.09
2016-12-23T01:52:08.382Z,17.06
2016-12-23T01:52:48.912Z,17.11
2016-12-23T01:53:29.439Z,17.02
2016-12-23T01:54:09.964Z,17.11
2016-12-23T01:54:50.514Z,17.09
2016-12-23T01:55:31.049Z,17.09
2016-12-23T01:56:11.587Z,17.06
2016-12-23T01:56:52.120Z,17.08
2016-12-23T01:57:32.643Z,17.05
2016-12-23T01:58:13.176Z,17.04
2016-12-23T01:58:53.713Z,17.08
2016-12-23T01:59:34.237Z,17.09
2016-12-23T02:00:14.772Z,17.06
2016-12-23T02:00:55.314Z,17.06
2016-12-23T02:01:35.863Z,17.02
2016-12-23T02:02:16.390Z,17.12
2016-12-23T02:02:56.925Z,17.05
2016-12-23T02:03:37.471Z,17.09
2016-12-23T02:04:18.004Z,17.06
2016-12-23T02:04:58.531Z,17.08
2016-12-23T02:05:39.061Z,17.06
2016-12-23T02:06:19.594Z,17.06
2016-12-23T02:07:00.125Z,17.02
2016-12-23T02:07:40.665Z,17.08
2016-12-23T02:08:21.199Z,17.11
2016-12-23T02:09:01.726Z,17.04
2016-12-23T02:09:42.260Z,17.05
2016-12-23T02:10:22.801Z,17.09
2016-12-23T02:11:03.329Z,17.11
2016-12-23T02:11:43.865Z,17.04
2016-12-23T02:12:24.398Z,17.06
2016-12-23T02:13:04.935Z,17.08
2016-12-23T02:13:45.478Z,17.05
2016-12-23T02:14:26.018Z,17.09
2016-12-23T02:15:06.548Z,17.06
2016-12-23T02:15:47.074Z,17.02
2016-12-23T02:16:27.609Z,17.05
2016-12-23T02:17:08.142Z,17.06
2016-12-23T02:17:48.675Z,17.12
2016-12-23T02:18:29.211Z,17.11
2016-12-23T02:19:09.748Z,17.08
2016-12-23T02:19:50.280Z,17.04
2016-12-23T02:20:30.808Z,17.06
2016-12-23T02:21:11.336Z,17.05
2016-12-23T02:21:51.861Z,17.06
2016-12-23T02:22:32.392Z,17.06
2016-12-23T02:23:12.926Z,17.05
2016-12-23T02:23:53.461Z,17.06
2016-12-23T02:24:33.995Z,17.05
2016-12-23T02:25:14.524Z,17.05
2016-12-23T02:25:55.062Z,17.08
2016-12-23T02:26:35.592Z,17.05
2016-12-23T02:27:16.124Z,17.08
2016-12-23T02:27:56.652Z,17.09
2016-12-23T02:28:37.172Z,17.04
2016-12-23T02:29:17.710Z,17.04
2016-12-23T02:29:58.248Z,17.08
2016-12-23T02:30:38.777Z,17.02
2016-12-23T02:31:19.314Z,17.09
2016-12-23T02:31:59.846Z,17.04
2016-12-23T02:32:40.382Z,17.04
2016-12-23T02:33:20.910Z,17.05
2016-12-23T02:34:01.447Z,17.06
2016-12-23T02:34:41.982Z,17.06
2016-12-23T02:35:22.519Z,17.04
2016-12-23T02:36:03.051Z,17.02
2016-12-23T02:36:43.581Z,17.06
2016-12-23T02:37:24.115Z,17.08
2016-12-23T02:38:04.650Z,17.06
2016-12-23T02:38:45.175Z,17.06
2016-12-23T02:39:25.696Z,17.05
2016-12-23T02:40:06.228Z,16.99
2016-12-23T02:40:46.760Z,17.05
2016-12-23T02:41:27.306Z,17.01
2016-12-23T02:42:07.825Z,17.08
2016-12-23T02:42:48.357Z,17.05
2016-12-23T02:43:28.890Z,17.05
2016-12-23T02:44:09.422Z,16.99
2016-12-23T02:44:49.963Z,17.05
2016-12-23T02:45:30.502Z,17.02
2016-12-23T02:46:11.030Z,17.02
2016-12-23T02:46:51.562Z,17.04
2016-12-23T02:47:32.099Z,16.89
2016-12-23T02:48:12.634Z,16.96
2016-12-23T02:48:53.170Z,16.94
2016-12-23T02:49:33.705Z,17.02
2016-12-23T02:50:14.234Z,17.01
2016-12-23T02:50:54.770Z,16.97
2016-12-23T02:51:35.291Z,17.02
2016-12-23T02:52:15.820Z,17.04
2016-12-23T02:52:56.356Z,17.01
2016-12-23T02:53:36.882Z,17.04
2016-12-23T02:54:17.412Z,16.99
2016-12-23T02:54:57.940Z,17.05
2016-12-23T02:55:38.477Z,16.99
2016-12-23T02:56:19.009Z,17.02
2016-12-23T02:56:59.539Z,16.99
2016-12-23T02:57:40.067Z,16.94
2016-12-23T02:58:20.607Z,16.94
2016-12-23T02:59:01.143Z,16.91
2016-12-23T02:59:41.672Z,16.93
2016-12-23T03:00:22.193Z,16.91
2016-12-23T03:01:02.732Z,16.93
2016-12-23T03:01:43.245Z,16.99
2016-12-23T03:02:23.771Z,16.96
2016-12-23T03:03:04.305Z,16.99
2016-12-23T03:03:44.837Z,17.05
2016-12-23T03:04:25.376Z,17.01
2016-12-23T03:05:05.911Z,17.04
2016-12-23T03:05:46.431Z,16.89
2016-12-23T03:06:26.966Z,17.02
2016-12-23T03:07:07.496Z,16.99
2016-12-23T03:07:48.026Z,17.02
2016-12-23T03:08:28.583Z,16.93
2016-12-23T03:09:09.116Z,16.87
2016-12-23T03:09:49.648Z,16.97
2016-12-23T03:10:30.171Z,16.99
2016-12-23T03:11:10.695Z,17.04
2016-12-23T03:11:51.231Z,16.91
2016-12-23T03:12:31.767Z,16.97
2016-12-23T03:13:12.293Z,17.04
2016-12-23T03:13:52.828Z,16.9
2016-12-23T03:14:33.363Z,17.01
2016-12-23T03:15:13.889Z,17.04
2016-12-23T03:15:54.415Z,16.9
2016-12-23T03:16:34.948Z,16.89
2016-12-23T03:17:15.497Z,16.93
2016-12-23T03:17:56.032Z,16.94
2016-12-23T03:18:36.562Z,16.94
2016-12-23T03:19:17.090Z,16.89
2016-12-23T03:19:57.618Z,17.02
2016-12-23T03:20:38.140Z,16.94
2016-12-23T03:21:18.670Z,16.94
2016-12-23T03:21:59.198Z,16.97
2016-12-23T03:22:39.727Z,16.93
2016-12-23T03:23:20.261Z,17.04
2016-12-23T03:24:00.797Z,16.9
2016-12-23T03:24:41.323Z,16.96
2016-12-23T03:25:21.851Z,16.93
2016-12-23T03:26:02.381Z,16.94
2016-12-23T03:26:42.915Z,16.84
2016-12-23T03:27:23.442Z,16.96
2016-12-23T03:28:03.970Z,17.05
2016-12-23T03:28:44.505Z,16.91
2016-12-23T03:29:25.038Z,17.02
2016-12-23T03:30:05.576Z,16.94
2016-12-23T03:30:46.121Z,16.99
2016-12-23T03:31:26.632Z,16.94
2016-12-23T03:32:07.164Z,16.93
2016-12-23T03:32:47.698Z,17.06
2016-12-23T03:33:28.227Z,16.97
2016-12-23T03:34:08.761Z,16.91
2016-12-23T03:34:49.298Z,16.96
2016-12-23T03:35:29.837Z,16.86
2016-12-23T03:36:10.366Z,17.01
2016-12-23T03:36:50.900Z,17.04
2016-12-23T03:37:31.426Z,16.87
2016-12-23T03:38:11.962Z,16.83
2016-12-23T03:38:52.491Z,16.91
2016-12-23T03:39:33.008Z,16.86
2016-12-23T03:40:13.528Z,16.83
2016-12-23T03:40:54.042Z,17.01
2016-12-23T03:41:34.566Z,16.97
2016-12-23T03:42:15.095Z,16.81
2016-12-23T03:42:55.626Z,16.86
2016-12-23T03:43:36.167Z,16.89
2016-12-23T03:44:16.693Z,16.96
2016-12-23T03:44:57.222Z,17.02
2016-12-23T03:45:37.764Z,16.96
2016-12-23T03:46:18.304Z,17.04
2016-12-23T03:46:58.834Z,16.84
2016-12-23T03:47:39.372Z,16.99
2016-12-23T03:48:19.898Z,16.9
2016-12-23T03:49:00.435Z,16.96
2016-12-23T03:49:40.967Z,16.99
2016-12-23T03:50:21.494Z,16.97
2016-12-23T03:51:02.025Z,16.93
2016-12-23T03:51:42.560Z,17.04
2016-12-23T03:52:23.086Z,17.02
2016-12-23T03:53:03.606Z,16.83
2016-12-23T03:53:44.142Z,16.97
2016-12-23T03:54:24.666Z,16.79
2016-12-23T03:55:05.197Z,17.04
2016-12-23T03:55:45.732Z,16.9
2016-12-23T03:56:26.264Z,17.01
2016-12-23T03:57:06.795Z,16.84
2016-12-23T03:57:47.331Z,16.84
2016-12-23T03:58:27.863Z,16.91
2016-12-23T03:59:08.396Z,16.99
2016-12-23T03:59:48.927Z,17.05
2016-12-23T04:00:29.448Z,16.96
2016-12-23T04:01:09.980Z,16.97
2016-12-23T04:01:50.522Z,16.9
2016-12-23T04:02:31.047Z,17.05
2016-12-23T04:03:11.580Z,16.89
2016-12-23T04:03:52.116Z,16.87
2016-12-23T04:04:32.657Z,16.96
2016-12-23T04:05:13.183Z,16.96
2016-12-23T04:05:53.715Z,16.89
2016-12-23T04:06:34.237Z,16.84
2016-12-23T04:07:14.767Z,16.86
2016-12-23T04:07:55.311Z,16.91
2016-12-23T04:08:35.842Z,16.91
2016-12-23T04:09:16.367Z,16.83
2016-12-23T04:09:56.896Z,16.96
2016-12-23T04:10:37.418Z,16.96
2016-12-23T04:11:17.958Z,17.04
2016-12-23T04:11:58.493Z,16.89
2016-12-23T04:12:39.023Z,16.9
2016-12-23T04:13:19.551Z,16.9
2016-12-23T04:14:00.066Z,16.96
2016-12-23T04:14:40.606Z,16.91
2016-12-23T04:15:21.130Z,16.83
2016-12-23T04:16:01.660Z,16.99
2016-12-23T04:16:42.197Z,16.81
2016-12-23T04:17:22.732Z,16.96
2016-12-23T04:18:03.265Z,16.86
2016-12-23T04:18:43.792Z,17.02
2016-12-23T04:19:24.320Z,16.89
2016-12-23T04:20:04.847Z,16.84
2016-12-23T04:20:45.380Z,16.94
2016-12-23T04:21:25.910Z,16.81
2016-12-23T04:22:06.443Z,16.96
2016-12-23T04:22:46.982Z,16.84
2016-12-23T04:23:27.517Z,16.99
2016-12-23T04:24:08.071Z,16.96
2016-12-23T04:24:48.601Z,17.01
2016-12-23T04:25:29.142Z,16.83
2016-12-23T04:26:09.675Z,17.02
2016-12-23T04:26:50.207Z,16.84
2016-12-23T04:27:30.724Z,16.99
2016-12-23T04:28:11.260Z,16.9
2016-12-23T04:28:51.793Z,16.86
2016-12-23T04:29:32.332Z,16.99
2016-12-23T04:30:12.859Z,16.87
2016-12-23T04:30:53.387Z,16.99
2016-12-23T04:31:33.922Z,16.96
2016-12-23T04:32:14.449Z,16.97
2016-12-23T04:32:54.980Z,16.99
2016-12-23T04:33:35.513Z,16.84
2016-12-23T04:34:16.042Z,17.08
2016-12-23T04:34:56.568Z,17.01
2016-12-23T04:35:37.122Z,16.97
2016-12-23T04:36:17.650Z,16.99
2016-12-23T04:36:58.190Z,16.89
2016-12-23T04:37:38.713Z,16.97
2016-12-23T04:38:19.244Z,16.93
2016-12-23T04:38:59.768Z,16.84
2016-12-23T04:39:40.309Z,16.97
2016-12-23T04:40:20.841Z,16.87
2016-12-23T04:41:01.374Z,16.96
2016-12-23T04:41:41.909Z,16.94
2016-12-23T04:42:22.443Z,16.86
2016-12-23T04:43:02.979Z,16.86
2016-12-23T04:43:43.511Z,16.81
2016-12-23T04:44:24.041Z,16.83
2016-12-23T04:45:04.590Z,16.86
2016-12-23T04:45:45.118Z,16.96
2016-12-23T04:46:25.642Z,17.01
2016-12-23T04:47:06.180Z,16.99
2016-12-23T04:47:46.710Z,16.86
2016-12-23T04:48:27.248Z,16.9
2016-12-23T04:49:07.774Z,16.97
2016-12-23T04:49:48.310Z,16.97
2016-12-23T04:50:28.844Z,16.96
2016-12-23T04:51:09.373Z,16.81
2016-12-23T04:51:49.906Z,16.94
2016-12-23T04:52:30.425Z,16.94
2016-12-23T04:53:10.962Z,16.96
2016-12-23T04:53:51.493Z,16.91
2016-12-23T04:54:32.020Z,17.04
2016-12-23T04:55:12.550Z,16.9
2016-12-23T04:55:53.085Z,16.91
2016-12-23T04:56:33.623Z,16.93
2016-12-23T04:57:14.158Z,16.91
2016-12-23T04:57:54.689Z,17.01
2016-12-23T04:58:35.219Z,16.87
2016-12-23T04:59:15.746Z,16.97
2016-12-23T04:59:56.274Z,16.96
2016-12-23T05:00:36.801Z,16.91
2016-12-23T05:01:17.334Z,16.99
2016-12-23T05:01:57.869Z,17.02
2016-12-23T05:02:38.395Z,16.97
2016-12-23T05:03:18.929Z,16.94
2016-12-23T05:03:59.464Z,16.93
2016-12-23T05:04:39.996Z,17.02
2016-12-23T05:05:20.526Z,16.94
2016-12-23T05:06:01.060Z,16.99
2016-12-23T05:06:41.583Z,16.93
2016-12-23T05:07:22.117Z,16.9
2016-12-23T05:08:02.708Z,17.01
2016-12-23T05:08:43.240Z,17.02
2016-12-23T05:09:23.771Z,17.09
2016-12-23T05:10:04.306Z,16.91
2016-12-23T05:10:44.833Z,17.02
2016-12-23T05:11:25.369Z,16.93
2016-12-23T05:12:05.902Z,16.81
2016-12-23T05:12:46.433Z,16.84
2016-12-23T05:13:26.965Z,16.89
2016-12-23T05:14:07.506Z,16.96
2016-12-23T05:14:48.037Z,16.99
2016-12-23T05:15:28.571Z,17.08
2016-12-23T05:16:09.100Z,16.93
2016-12-23T05:16:49.631Z,16.94
2016-12-23T05:17:30.166Z,16.93
2016-12-23T05:18:10.705Z,16.91
2016-12-23T05:18:51.228Z,16.96
2016-12-23T05:19:31.762Z,16.9
2016-12-23T05:20:12.303Z,16.99
2016-12-23T05:20:52.840Z,16.94
2016-12-23T05:21:33.373Z,16.96
2016-12-23T05:22:13.907Z,16.96
2016-12-23T05:22:54.439Z,17.01
2016-12-23T05:23:34.973Z,16.93
2016-12-23T05:24:15.506Z,16.9
2016-12-23T05:24:56.037Z,16.93
2016-12-23T05:25:36.569Z,16.94
2016-12-23T05:26:17.107Z,16.96
2016-12-23T05:26:57.640Z,16.94
2016-12-23T05:27:38.178Z,16.99
2016-12-23T05:28:18.708Z,17.02
2016-12-23T05:28:59.240Z,17.06
2016-12-23T05:29:39.768Z,16.97
2016-12-23T05:30:20.300Z,17.01
2016-12-23T05:31:00.832Z,17.01
2016-12-23T05:31:41.380Z,16.93
2016-12-23T05:32:21.912Z,16.91
2016-12-23T05:33:02.443Z,17.04
2016-12-23T05:33:42.971Z,16.94
2016-12-23T05:34:23.506Z,17.09
2016-12-23T05:35:04.057Z,16.96
2016-12-23T05:35:44.563Z,17.02
2016-12-23T05:36:25.090Z,17.04
2016-12-23T05:37:05.623Z,17.04
2016-12-23T05:37:46.156Z,17.02
2016-12-23T05:38:26.690Z,16.96
2016-12-23T05:39:07.225Z,16.97
2016-12-23T05:39:47.753Z,17.05
2016-12-23T05:40:28.279Z,17.02
2016-12-23T05:41:08.807Z,16.97
2016-12-23T05:41:49.344Z,16.96
2016-12-23T05:42:29.879Z,17.11
2016-12-23T05:43:10.418Z,17.05
2016-12-23T05:43:50.951Z,17.06
2016-12-23T05:44:31.490Z,17.05
2016-12-23T05:45:12.017Z,16.94
2016-12-23T05:45:52.558Z,17.04
2016-12-23T05:46:33.077Z,16.99
2016-12-23T05:47:13.603Z,17.01
2016-12-23T05:47:54.138Z,17.02
2016-12-23T05:48:34.668Z,17.01
2016-12-23T05:49:15.198Z,16.99
2016-12-23T05:49:55.740Z,16.96
2016-12-23T05:50:36.283Z,16.97
2016-12-23T05:51:16.822Z,17.05
2016-12-23T05:51:57.360Z,17.02
2016-12-23T05:52:37.890Z,17.04
2016-12-23T05:53:18.435Z,17.05
2016-12-23T05:53:58.968Z,17.06
2016-12-23T05:54:39.502Z,16.96
2016-12-23T05:55:20.036Z,17.05
2016-12-23T05:56:00.572Z,17.04
2016-12-23T05:56:41.103Z,17.02
2016-12-23T05:57:21.656Z,16.96
2016-12-23T05:58:02.180Z,17.04
2016-12-23T05:58:42.714Z,17.04
2016-12-23T05:59:23.253Z,17.06
2016-12-23T06:00:03.771Z,17.06
2016-12-23T06:00:44.306Z,17.08
2016-12-23T06:01:24.837Z,16.97
2016-12-23T06:02:05.366Z,17.08
2016-12-23T06:02:45.897Z,17.06
2016-12-23T06:03:26.424Z,17.06
2016-12-23T06:04:06.954Z,16.97
2016-12-23T06:04:47.491Z,17.06
2016-12-23T06:05:28.026Z,16.97
2016-12-23T06:06:08.556Z,17.01
2016-12-23T06:06:49.090Z,17.04
2016-12-23T06:07:29.624Z,17.02
2016-12-23T06:08:10.155Z,17.02
2016-12-23T06:08:50.694Z,17.02
2016-12-23T06:09:31.220Z,16.99
2016-12-23T06:10:11.751Z,17.06
2016-12-23T06:10:52.293Z,17.04
2016-12-23T06:11:32.820Z,17.02
2016-12-23T06:12:13.352Z,16.97
2016-12-23T06:12:53.880Z,17.02
2016-12-23T06:13:34.416Z,16.94
2016-12-23T06:14:14.954Z,16.97
2016-12-23T06:14:55.476Z,17.04
2016-12-23T06:15:36.016Z,17.04
2016-12-23T06:16:16.540Z,17.04
2016-12-23T06:16:57.075Z,17.02
2016-12-23T06:17:37.610Z,17.08
2016-12-23T06:18:18.140Z,17.02
2016-12-23T06:18:58.675Z,17.04
2016-12-23T06:19:39.208Z,17.08
2016-12-23T06:20:19.739Z,17.05
2016-12-23T06:21:00.274Z,17.01
2016-12-23T06:21:40.805Z,17.04
2016-12-23T06:22:21.331Z,17.04
2016-12-23T06:23:01.871Z,17.02
2016-12-23T06:23:42.417Z,17.05
2016-12-23T06:24:22.956Z,17.05
2016-12-23T06:25:03.491Z,17.05
2016-12-23T06:25:44.007Z,17.08
2016-12-23T06:26:24.536Z,17.02
2016-12-23T06:27:05.065Z,17.01
2016-12-23T06:27:45.597Z,16.97
2016-12-23T06:28:26.131Z,17.04
2016-12-23T06:29:06.660Z,17.01
2016-12-23T06:29:47.193Z,17.06
2016-12-23T06:30:27.730Z,17.05
2016-12-23T06:31:08.264Z,17.06
2016-12-23T06:31:48.795Z,17.06
2016-12-23T06:32:29.338Z,17.01
2016-12-23T06:33:09.864Z,17.01
2016-12-23T06:33:50.390Z,17.08
2016-12-23T06:34:30.913Z,17.02
2016-12-23T06:35:11.449Z,17.06
2016-12-23T06:35:51.987Z,17.01
2016-12-23T06:36:32.521Z,17.06
2016-12-23T06:37:13.049Z,17.04
2016-12-23T06:37:53.580Z,17.02
2016-12-23T06:38:34.116Z,16.99
2016-12-23T06:39:14.649Z,17.04
2016-12-23T06:39:55.183Z,17.06
2016-12-23T06:40:35.703Z,17.06
2016-12-23T06:41:16.242Z,17.04
2016-12-23T06:41:56.776Z,17.06
2016-12-23T06:42:37.296Z,17.04
2016-12-23T06:43:17.835Z,17.05
2016-12-23T06:43:58.366Z,17.01
2016-12-23T06:44:38.904Z,17.06
2016-12-23T06:45:19.440Z,17.02
2016-12-23T06:45:59.972Z,17.05
2016-12-23T06:46:40.501Z,17.04
2016-12-23T06:47:21.034Z,17.02
2016-12-23T06:48:01.568Z,16.97
2016-12-23T06:48:42.092Z,17.09
2016-12-23T06:49:22.630Z,17.04
2016-12-23T06:50:03.164Z,17.06
2016-12-23T06:50:43.702Z,17.05
2016-12-23T06:51:24.228Z,17.01
2016-12-23T06:52:04.752Z,17.01
2016-12-23T06:52:45.288Z,17.08
2016-12-23T06:53:25.822Z,17.02
2016-12-23T06:54:06.346Z,17.06
2016-12-23T06:54:46.875Z,17.04
2016-12-23T06:55:27.408Z,17.04
2016-12-23T06:56:07.927Z,17.06
2016-12-23T06:56:48.459Z,17.06
2016-12-23T06:57:28.993Z,17.04
2016-12-23T06:58:09.531Z,17.06
2016-12-23T06:58:50.062Z,16.97
2016-12-23T06:59:30.593Z,17.04
2016-12-23T07:00:11.120Z,17.02
2016-12-23T07:00:51.655Z,17.04
2016-12-23T07:01:32.193Z,17.04
2016-12-23T07:02:12.718Z,17.08
2016-12-23T07:02:53.261Z,17.01
2016-12-23T07:03:33.791Z,17.02
2016-12-23T07:04:14.324Z,17.04
2016-12-23T07:04:54.852Z,17.05
2016-12-23T07:05:35.387Z,17.04
2016-12-23T07:06:15.922Z,16.97
2016-12-23T07:06:56.460Z,17.02
2016-12-23T07:07:36.988Z,16.97
2016-12-23T07:08:17.515Z,16.99
2016-12-23T07:08:58.050Z,17.01
2016-12-23T07:09:38.583Z,17.09
2016-12-23T07:10:19.108Z,17.02
2016-12-23T07:10:59.715Z,16.99
2016-12-23T07:11:40.247Z,17.02
2016-12-23T07:12:20.783Z,17.01
2016-12-23T07:13:01.314Z,17.02
2016-12-23T07:13:41.854Z,17.08
2016-12-23T07:14:22.391Z,17.02
2016-12-23T07:15:02.933Z,17.05
2016-12-23T07:15:43.461Z,17.05
2016-12-23T07:16:24.006Z,17.08
2016-12-23T07:17:04.535Z,17.02
2016-12-23T07:17:45.074Z,16.97
2016-12-23T07:18:25.596Z,17.06
2016-12-23T07:19:06.133Z,17.06
2016-12-23T07:19:46.671Z,16.99
2016-12-23T07:20:27.197Z,17.05
2016-12-23T07:21:07.729Z,17.05
2016-12-23T07:21:48.261Z,16.99
2016-12-23T07:22:28.793Z,17.05
2016-12-23T07:23:09.320Z,17.05
2016-12-23T07:23:49.859Z,17.04
2016-12-23T07:24:30.387Z,17.09
2016-12-23T07:25:10.917Z,17.02
2016-12-23T07:25:51.443Z,16.97
2016-12-23T07:26:31.976Z,16.94
2016-12-23T07:27:12.512Z,17.01
2016-12-23T07:27:53.042Z,16.99
2016-12-23T07:28:33.583Z,16.99
2016-12-23T07:29:14.123Z,17.04
2016-12-23T07:29:54.656Z,16.97
2016-12-23T07:30:35.184Z,17.02
2016-12-23T07:31:15.721Z,17.06
2016-12-23T07:31:56.259Z,17.04
2016-12-23T07:32:36.796Z,16.97
2016-12-23T07:33:17.319Z,17.04
2016-12-23T07:33:57.865Z,16.99
2016-12-23T07:34:38.396Z,16.94
2016-12-23T07:35:18.922Z,17.05
2016-12-23T07:35:59.450Z,17.04
2016-12-23T07:36:39.988Z,17.04
2016-12-23T07:37:20.510Z,16.99
2016-12-23T07:38:01.045Z,17.06
2016-12-23T07:38:41.582Z,17.06
2016-12-23T07:39:22.125Z,17.06
2016-12-23T07:40:02.651Z,17.05
2016-12-23T07:40:43.189Z,17.01
2016-12-23T07:41:23.722Z,17.06
2016-12-23T07:42:04.255Z,17.11
2016-12-23T07:42:44.789Z,17.08
2016-12-23T07:43:25.319Z,17.04
2016-12-23T07:44:05.849Z,17.06
2016-12-23T07:44:46.389Z,17.06
2016-12-23T07:45:26.921Z,17.06
2016-12-23T07:46:07.455Z,17.08
2016-12-23T07:46:47.995Z,17.05
2016-12-23T07:47:28.527Z,17.08
2016-12-23T07:48:09.058Z,17.06
2016-12-23T07:48:49.589Z,17.04
2016-12-23T07:49:30.124Z,17.14
2016-12-23T07:50:10.661Z,17.06
2016-12-23T07:50:51.188Z,17.09
2016-12-23T07:51:31.718Z,17.12
2016-12-23T07:52:12.270Z,17.14
2016-12-23T07:52:52.892Z,17.11
2016-12-23T07:53:33.513Z,17.09
2016-12-23T07:54:14.046Z,17.12
2016-12-23T07:54:54.574Z,17.16
2016-12-23T07:55:35.109Z,17.16
2016-12-23T07:56:15.644Z,17.08
2016-12-23T07:56:56.180Z,17.14
2016-12-23T07:57:36.716Z,17.15
2016-12-23T07:58:17.248Z,17.12
2016-12-23T07:58:57.787Z,17.19
2016-12-23T07:59:38.321Z,17.11
2016-12-23T08:00:18.847Z,17.11
2016-12-23T08:00:59.373Z,17.12
2016-12-23T08:01:39.914Z,17.12
2016-12-23T08:02:20.441Z,17.16
2016-12-23T08:03:00.975Z,17.16
2016-12-23T08:03:41.511Z,17.16
2016-12-23T08:04:22.044Z,17.2
2016-12-23T08:05:02.579Z,17.12
2016-12-23T08:05:43.108Z,17.24
2016-12-23T08:06:23.641Z,17.24
2016-12-23T08:07:04.164Z,17.26
2016-12-23T08:07:44.682Z,17.22
2016-12-23T08:08:25.218Z,17.23
2016-12-23T08:09:05.748Z,17.22
2016-12-23T08:09:46.278Z,17.27
2016-12-23T08:10:26.812Z,17.26
2016-12-23T08:11:07.330Z,17.26
2016-12-23T08:11:47.865Z,17.27
2016-12-23T08:12:28.397Z,17.24
2016-12-23T08:13:08.956Z,17.26
2016-12-23T08:13:49.475Z,17.26
2016-12-23T08:14:30.027Z,17.22
2016-12-23T08:15:10.574Z,17.27
2016-12-23T08:15:51.115Z,17.24
2016-12-23T08:16:31.640Z,17.34
2016-12-23T08:17:12.172Z,17.22
2016-12-23T08:17:52.703Z,17.24
2016-12-23T08:18:33.238Z,17.22
2016-12-23T08:19:13.769Z,17.29
2016-12-23T08:19:54.305Z,17.34
2016-12-23T08:20:34.824Z,17.3
2016-12-23T08:21:15.352Z,17.31
2016-12-23T08:21:55.881Z,17.38
2016-12-23T08:22:36.417Z,17.23
2016-12-23T08:23:16.952Z,17.38
2016-12-23T08:23:57.571Z,17.26
2016-12-23T08:24:38.117Z,17.31
2016-12-23T08:25:18.649Z,17.34
2016-12-23T08:25:59.179Z,17.31
2016-12-23T08:26:39.718Z,17.36
2016-12-23T08:27:20.251Z,17.38
2016-12-23T08:28:00.773Z,17.38
2016-12-23T08:28:41.306Z,17.41
2016-12-23T08:29:21.843Z,17.41
2016-12-23T08:30:02.369Z,17.31
2016-12-23T08:30:42.908Z,17.34
2016-12-23T08:31:23.442Z,17.39
2016-12-23T08:32:03.968Z,17.31
2016-12-23T08:32:44.497Z,17.34
2016-12-23T08:33:25.029Z,17.45
2016-12-23T08:34:05.551Z,17.38
2016-12-23T08:34:46.079Z,17.42
2016-12-23T08:35:26.617Z,17.39
2016-12-23T08:36:07.145Z,17.39
2016-12-23T08:36:47.679Z,17.41
2016-12-23T08:37:28.219Z,17.38
2016-12-23T08:38:08.744Z,17.41
2016-12-23T08:38:49.280Z,17.38
2016-12-23T08:39:29.815Z,17.38
2016-12-23T08:40:10.354Z,17.38
2016-12-23T08:40:50.894Z,17.44
2016-12-23T08:41:31.426Z,17.41
2016-12-23T08:42:11.966Z,17.48
2016-12-23T08:42:52.500Z,17.38